Stillwater, OK

12:34 PM CDT on July 29, 2016 (GMT -0500)
Stillwater Municipal | | Change Station

Elev 981 ft 36.16 °N, 97.09 °W | Updated 41 minutes ago

Clear
Clear
79 °F
Feels Like 79 °F
N
4
Wind Variable Wind from SSE

Today
High -- | Low -- °F
--% Chance of Precip.
Yesterday
High -- | Low -- °F
Precip. -- in
Pressure 29.97 in
Visibility 10.0 miles
Clouds Clear
Dew Point 68 °F
Humidity 69%
Rainfall 0.17 in
Snow Depth Not available.
6:33 AM 8:35 PM
Waning Crescent, 20% visible
METAR KSWO 291653Z 16003KT 10SM CLR 26/20 A3000 RMK AO2 SLP147 T02610200
Pressure 29.97 in
Visibility 10.0 miles
Clouds Clear
Dew Point 68 °F
Humidity 69%
Rainfall 0.17 in
Snow Depth Not available.
6:33 AM 8:35 PM
Waning Crescent, 20% visible
METAR KSWO 291653Z 16003KT 10SM CLR 26/20 A3000 RMK AO2 SLP147 T02610200

10-Day Weather Forecast

Almanac

Astronomy

Jul. 29, 2016 Rise Set
Actual Time
Civil Twilight
Nautical Twilight
Astronomical Twilight
Moon
Length of Visible Light
Length of Day
Tomorrow will be .
, % of the Moon is Illuminated

Today's Extremes

State Highs State Lows

Community

WunderPhotos

Upload Photos

1,928,382 photos uploaded!

WunderBlog® & News

Nearby

Air Quality

  Air Quality AQ Index Pollutant
Not available.

Snow Depth

Station Depth Elevation

Earthquake Activity

City Distance Mag. Time & Date
Minimum magnitude displayed is 2.5.

Coastal Water Temperatures

Place Temperature

Stations

Nearby Weather Stations

Station Location Temp. Windchill Dew Point Humidity Wind Precip. Elev Updated Type
                   

Watches & Warnings

There are currently no watches in effect.